sensor_id;sensor_type;location;lat;lon;timestamp;pressure;altitude;pressure_sealevel;temperature;humidity
66681;BME280;53575;51.366;12.350;2022-11-03T00:01:46;100891.63;;;6.86;97.96
66681;BME280;53575;51.366;12.350;2022-11-03T00:04:14;100897.53;;;6.77;99.27
66681;BME280;53575;51.366;12.350;2022-11-03T00:06:40;100901.84;;;6.77;98.61
66681;BME280;53575;51.366;12.350;2022-11-03T00:09:11;100886.22;;;6.74;98.76
66681;BME280;53575;51.366;12.350;2022-11-03T00:11:38;100884.47;;;6.73;99.32
66681;BME280;53575;51.366;12.350;2022-11-03T00:14:04;100884.84;;;6.94;98.02
66681;BME280;53575;51.366;12.350;2022-11-03T00:16:30;100888.28;;;6.93;97.57
66681;BME280;53575;51.366;12.350;2022-11-03T00:18:56;100883.03;;;6.90;98.56
66681;BME280;53575;51.366;12.350;2022-11-03T00:21:22;100874.22;;;6.80;97.93
66681;BME280;53575;51.366;12.350;2022-11-03T00:23:47;100880.28;;;6.82;98.43
66681;BME280;53575;51.366;12.350;2022-11-03T00:26:15;100877.66;;;6.79;98.33
66681;BME280;53575;51.366;12.350;2022-11-03T00:28:43;100878.69;;;6.89;98.41
66681;BME280;53575;51.366;12.350;2022-11-03T00:31:20;100869.16;;;6.90;98.46
66681;BME280;53575;51.366;12.350;2022-11-03T00:33:46;100862.91;;;6.77;98.98
66681;BME280;53575;51.366;12.350;2022-11-03T00:36:14;100876.03;;;6.86;99.16
66681;BME280;53575;51.366;12.350;2022-11-03T00:38:41;100876.81;;;6.80;98.98
66681;BME280;53575;51.366;12.350;2022-11-03T00:41:07;100878.50;;;6.78;99.61
66681;BME280;53575;51.366;12.350;2022-11-03T00:43:33;100877.81;;;6.89;98.91
66681;BME280;53575;51.366;12.350;2022-11-03T00:45:59;100876.94;;;6.88;99.08
66681;BME280;53575;51.366;12.350;2022-11-03T00:48:25;100881.13;;;6.80;100.00
66681;BME280;53575;51.366;12.350;2022-11-03T00:51:04;100885.56;;;6.86;99.40
66681;BME280;53575;51.366;12.350;2022-11-03T00:53:32;100881.81;;;6.71;100.00
66681;BME280;53575;51.366;12.350;2022-11-03T00:55:58;100879.34;;;6.76;100.00
66681;BME280;53575;51.366;12.350;2022-11-03T00:58:24;100873.31;;;6.78;100.00
66681;BME280;53575;51.366;12.350;2022-11-03T01:00:50;100874.28;;;6.83;100.00
66681;BME280;53575;51.366;12.350;2022-11-03T01:03:15;100878.75;;;6.92;99.41
66681;BME280;53575;51.366;12.350;2022-11-03T01:05:42;100876.09;;;6.88;99.66
66681;BME280;53575;51.366;12.350;2022-11-03T01:08:31;100876.81;;;6.80;100.00
66681;BME280;53575;51.366;12.350;2022-11-03T01:11:04;100873.44;;;6.86;100.00
66681;BME280;53575;51.366;12.350;2022-11-03T01:13:48;100869.09;;;6.83;100.00
66681;BME280;53575;51.366;12.350;2022-11-03T01:16:13;100870.03;;;6.90;99.78
66681;BME280;53575;51.366;12.350;2022-11-03T01:18:39;100865.66;;;6.86;100.00
66681;BME280;53575;51.366;12.350;2022-11-03T01:21:04;100864.84;;;6.89;100.00
66681;BME280;53575;51.366;12.350;2022-11-03T01:23:29;100855.03;;;6.74;100.00
66681;BME280;53575;51.366;12.350;2022-11-03T01:25:55;100854.59;;;6.98;99.80
66681;BME280;53575;51.366;12.350;2022-11-03T01:28:20;100848.38;;;6.88;100.00
66681;BME280;53575;51.366;12.350;2022-11-03T01:30:45;100848.31;;;6.87;100.00
66681;BME280;53575;51.366;12.350;2022-11-03T01:33:11;100842.25;;;6.84;100.00
66681;BME280;53575;51.366;12.350;2022-11-03T01:35:36;100843.25;;;6.91;100.00
66681;BME280;53575;51.366;12.350;2022-11-03T01:38:01;100842.25;;;6.84;100.00
66681;BME280;53575;51.366;12.350;2022-11-03T01:40:26;100839.72;;;6.89;100.00
66681;BME280;53575;51.366;12.350;2022-11-03T01:42:52;100836.78;;;6.71;100.00
66681;BME280;53575;51.366;12.350;2022-11-03T01:45:17;100839.72;;;6.88;100.00
66681;BME280;53575;51.366;12.350;2022-11-03T01:47:43;100828.53;;;6.93;100.00
66681;BME280;53575;51.366;12.350;2022-11-03T01:50:16;100822.34;;;6.87;100.00
66681;BME280;53575;51.366;12.350;2022-11-03T01:52:55;100823.31;;;6.92;100.00
66681;BME280;53575;51.366;12.350;2022-11-03T01:55:26;100826.78;;;6.91;100.00
66681;BME280;53575;51.366;12.350;2022-11-03T01:57:53;100814.47;;;6.80;100.00
66681;BME280;53575;51.366;12.350;2022-11-03T02:00:20;100807.59;;;6.84;100.00
66681;BME280;53575;51.366;12.350;2022-11-03T02:02:45;100810.94;;;6.75;100.00
66681;BME280;53575;51.366;12.350;2022-11-03T02:05:13;100804.88;;;6.76;100.00
66681;BME280;53575;51.366;12.350;2022-11-03T02:07:49;100793.56;;;6.74;100.00
66681;BME280;53575;51.366;12.350;2022-11-03T02:10:17;100793.75;;;6.83;100.00
66681;BME280;53575;51.366;12.350;2022-11-03T02:12:43;100795.31;;;6.74;100.00
66681;BME280;53575;51.366;12.350;2022-11-03T02:15:11;100791.09;;;6.82;100.00
66681;BME280;53575;51.366;12.350;2022-11-03T02:17:38;100787.69;;;6.83;100.00
66681;BME280;53575;51.366;12.350;2022-11-03T02:20:06;100779.78;;;6.77;100.00
66681;BME280;53575;51.366;12.350;2022-11-03T02:23:03;100776.25;;;6.73;100.00
66681;BME280;53575;51.366;12.350;2022-11-03T02:25:49;100766.00;;;6.82;100.00
66681;BME280;53575;51.366;12.350;2022-11-03T02:28:34;100782.25;;;6.71;100.00
66681;BME280;53575;51.366;12.350;2022-11-03T02:31:22;100770.91;;;6.64;100.00
66681;BME280;53575;51.366;12.350;2022-11-03T02:33:57;100761.47;;;6.69;100.00
66681;BME280;53575;51.366;12.350;2022-11-03T02:36:33;100762.16;;;6.59;100.00
66681;BME280;53575;51.366;12.350;2022-11-03T02:39:21;100762.53;;;6.80;100.00
66681;BME280;53575;51.366;12.350;2022-11-03T02:41:49;100746.88;;;6.76;100.00
66681;BME280;53575;51.366;12.350;2022-11-03T02:44:18;100751.69;;;6.54;100.00
66681;BME280;53575;51.366;12.350;2022-11-03T02:46:47;100739.81;;;6.69;100.00
66681;BME280;53575;51.366;12.350;2022-11-03T02:49:13;100741.69;;;6.77;100.00
66681;BME280;53575;51.366;12.350;2022-11-03T02:51:39;100738.09;;;6.71;100.00
66681;BME280;53575;51.366;12.350;2022-11-03T02:54:15;100733.81;;;6.73;100.00
66681;BME280;53575;51.366;12.350;2022-11-03T02:57:01;100740.03;;;6.82;100.00
66681;BME280;53575;51.366;12.350;2022-11-03T02:59:39;100734.81;;;6.82;100.00
66681;BME280;53575;51.366;12.350;2022-11-03T03:02:10;100737.53;;;6.89;100.00
66681;BME280;53575;51.366;12.350;2022-11-03T03:04:45;100725.47;;;6.94;100.00
66681;BME280;53575;51.366;12.350;2022-11-03T03:07:16;100721.09;;;6.88;100.00
66681;BME280;53575;51.366;12.350;2022-11-03T03:09:47;100722.66;;;6.78;100.00
66681;BME280;53575;51.366;12.350;2022-11-03T03:12:18;100719.47;;;6.96;100.00
66681;BME280;53575;51.366;12.350;2022-11-03T03:14:45;100717.75;;;6.97;99.91
66681;BME280;53575;51.366;12.350;2022-11-03T03:20:03;100705.63;;;6.97;99.83
66681;BME280;53575;51.366;12.350;2022-11-03T03:22:48;100715.91;;;6.90;99.58
66681;BME280;53575;51.366;12.350;2022-11-03T03:27:58;100696.66;;;6.78;100.00
66681;BME280;53575;51.366;12.350;2022-11-03T03:30:26;100688.84;;;6.75;100.00
66681;BME280;53575;51.366;12.350;2022-11-03T03:32:53;100695.75;;;6.75;100.00
66681;BME280;53575;51.366;12.350;2022-11-03T03:35:22;100691.41;;;6.74;100.00
66681;BME280;53575;51.366;12.350;2022-11-03T03:37:49;100690.56;;;6.75;99.66
66681;BME280;53575;51.366;12.350;2022-11-03T03:40:22;100685.13;;;6.59;100.00
66681;BME280;53575;51.366;12.350;2022-11-03T03:42:50;100683.38;;;6.58;100.00
66681;BME280;53575;51.366;12.350;2022-11-03T03:45:18;100688.69;;;6.66;100.00
66681;BME280;53575;51.366;12.350;2022-11-03T03:47:44;100678.13;;;6.54;100.00
66681;BME280;53575;51.366;12.350;2022-11-03T03:50:09;100677.25;;;6.55;100.00
66681;BME280;53575;51.366;12.350;2022-11-03T03:52:36;100670.22;;;6.46;100.00
66681;BME280;53575;51.366;12.350;2022-11-03T03:55:01;100658.88;;;6.41;100.00
66681;BME280;53575;51.366;12.350;2022-11-03T03:57:29;100663.47;;;6.59;100.00
66681;BME280;53575;51.366;12.350;2022-11-03T03:59:55;100660.00;;;6.57;100.00
66681;BME280;53575;51.366;12.350;2022-11-03T04:02:21;100653.88;;;6.53;100.00
66681;BME280;53575;51.366;12.350;2022-11-03T04:04:46;100659.28;;;6.67;100.00
66681;BME280;53575;51.366;12.350;2022-11-03T04:07:12;100663.59;;;6.65;100.00
66681;BME280;53575;51.366;12.350;2022-11-03T04:09:56;100667.91;;;6.65;100.00
66681;BME280;53575;51.366;12.350;2022-11-03T04:12:21;100672.00;;;6.52;100.00
66681;BME280;53575;51.366;12.350;2022-11-03T04:15:05;100670.41;;;6.60;100.00
66681;BME280;53575;51.366;12.350;2022-11-03T04:17:50;100669.41;;;6.49;100.00
66681;BME280;53575;51.366;12.350;2022-11-03T04:20:34;100665.88;;;6.45;100.00
66681;BME280;53575;51.366;12.350;2022-11-03T04:23:18;100651.31;;;6.55;100.00
66681;BME280;53575;51.366;12.350;2022-11-03T04:25:48;100662.38;;;6.45;100.00
66681;BME280;53575;51.366;12.350;2022-11-03T04:28:15;100663.19;;;6.41;100.00
66681;BME280;53575;51.366;12.350;2022-11-03T04:30:40;100639.91;;;6.45;100.00
66681;BME280;53575;51.366;12.350;2022-11-03T04:33:21;100664.09;;;6.43;100.00
66681;BME280;53575;51.366;12.350;2022-11-03T04:35:47;100657.19;;;6.45;100.00
66681;BME280;53575;51.366;12.350;2022-11-03T04:40:40;100653.75;;;6.46;100.00
66681;BME280;53575;51.366;12.350;2022-11-03T04:43:17;100643.44;;;6.50;100.00
66681;BME280;53575;51.366;12.350;2022-11-03T04:45:44;100643.25;;;6.38;100.00
66681;BME280;53575;51.366;12.350;2022-11-03T04:48:15;100645.06;;;6.44;100.00
66681;BME280;53575;51.366;12.350;2022-11-03T04:50:41;100643.22;;;6.37;100.00
66681;BME280;53575;51.366;12.350;2022-11-03T04:53:15;100635.47;;;6.40;100.00
66681;BME280;53575;51.366;12.350;2022-11-03T04:55:41;100640.59;;;6.35;100.00
66681;BME280;53575;51.366;12.350;2022-11-03T04:58:22;100629.38;;;6.36;100.00
66681;BME280;53575;51.366;12.350;2022-11-03T05:00:59;100624.91;;;6.27;100.00
66681;BME280;53575;51.366;12.350;2022-11-03T05:03:29;100618.09;;;6.34;100.00
66681;BME280;53575;51.366;12.350;2022-11-03T05:05:55;100630.78;;;6.17;100.00
66681;BME280;53575;51.366;12.350;2022-11-03T05:08:21;100628.19;;;6.17;100.00
66681;BME280;53575;51.366;12.350;2022-11-03T05:10:47;100635.34;;;6.30;100.00
66681;BME280;53575;51.366;12.350;2022-11-03T05:13:32;100633.56;;;6.26;100.00
66681;BME280;53575;51.366;12.350;2022-11-03T05:16:03;100640.22;;;6.10;100.00
66681;BME280;53575;51.366;12.350;2022-11-03T05:18:34;100633.13;;;6.02;100.00
66681;BME280;53575;51.366;12.350;2022-11-03T05:21:06;100623.97;;;6.22;100.00
66681;BME280;53575;51.366;12.350;2022-11-03T05:23:38;100623.13;;;6.25;100.00
66681;BME280;53575;51.366;12.350;2022-11-03T05:26:04;100617.81;;;6.17;100.00
66681;BME280;53575;51.366;12.350;2022-11-03T05:28:57;100609.69;;;5.97;100.00
66681;BME280;53575;51.366;12.350;2022-11-03T05:31:27;100615.69;;;5.95;100.00
66681;BME280;53575;51.366;12.350;2022-11-03T05:33:59;100615.75;;;5.98;100.00
66681;BME280;53575;51.366;12.350;2022-11-03T05:36:28;100610.56;;;5.98;100.00
66681;BME280;53575;51.366;12.350;2022-11-03T05:39:25;100615.69;;;5.95;100.00
66681;BME280;53575;51.366;12.350;2022-11-03T05:41:52;100613.94;;;5.92;100.00
66681;BME280;53575;51.366;12.350;2022-11-03T05:44:26;100605.63;;;6.12;100.00
66681;BME280;53575;51.366;12.350;2022-11-03T05:46:53;100597.84;;;6.13;100.00
66681;BME280;53575;51.366;12.350;2022-11-03T05:49:18;100603.00;;;6.10;100.00
66681;BME280;53575;51.366;12.350;2022-11-03T05:51:44;100602.25;;;6.17;100.00
66681;BME280;53575;51.366;12.350;2022-11-03T05:54:24;100597.94;;;6.18;100.00
66681;BME280;53575;51.366;12.350;2022-11-03T05:56:51;100602.91;;;6.05;100.00
66681;BME280;53575;51.366;12.350;2022-11-03T05:59:25;100598.72;;;6.12;100.00
66681;BME280;53575;51.366;12.350;2022-11-03T06:01:52;100597.00;;;6.14;100.00
66681;BME280;53575;51.366;12.350;2022-11-03T06:04:24;100590.78;;;6.03;100.00
66681;BME280;53575;51.366;12.350;2022-11-03T06:06:58;100588.22;;;6.04;100.00
66681;BME280;53575;51.366;12.350;2022-11-03T06:09:25;100589.22;;;6.14;100.00
66681;BME280;53575;51.366;12.350;2022-11-03T06:11:53;100584.19;;;6.23;100.00
66681;BME280;53575;51.366;12.350;2022-11-03T06:14:23;100583.44;;;6.30;99.90
66681;BME280;53575;51.366;12.350;2022-11-03T06:16:57;100585.88;;;6.21;99.92
66681;BME280;53575;51.366;12.350;2022-11-03T06:19:26;100579.75;;;6.18;99.93
66681;BME280;53575;51.366;12.350;2022-11-03T06:21:56;100573.13;;;6.33;99.22
66681;BME280;53575;51.366;12.350;2022-11-03T06:24:22;100574.00;;;6.35;98.39
66681;BME280;53575;51.366;12.350;2022-11-03T06:26:48;100573.25;;;6.43;98.13
66681;BME280;53575;51.366;12.350;2022-11-03T06:29:16;100570.69;;;6.46;97.81
66681;BME280;53575;51.366;12.350;2022-11-03T06:31:43;100563.72;;;6.45;97.45
66681;BME280;53575;51.366;12.350;2022-11-03T06:34:20;100573.25;;;6.44;98.32
66681;BME280;53575;51.366;12.350;2022-11-03T06:36:46;100558.53;;;6.43;98.06
66681;BME280;53575;51.366;12.350;2022-11-03T06:39:21;100560.53;;;6.61;96.89
66681;BME280;53575;51.366;12.350;2022-11-03T06:41:50;100567.47;;;6.62;96.67
66681;BME280;53575;51.366;12.350;2022-11-03T06:44:24;100561.59;;;6.78;95.48
66681;BME280;53575;51.366;12.350;2022-11-03T06:46:55;100557.13;;;6.67;96.20
66681;BME280;53575;51.366;12.350;2022-11-03T06:49:27;100557.16;;;6.68;96.29
66681;BME280;53575;51.366;12.350;2022-11-03T06:51:54;100565.78;;;6.67;96.14
66681;BME280;53575;51.366;12.350;2022-11-03T06:54:19;100558.13;;;6.76;95.98
66681;BME280;53575;51.366;12.350;2022-11-03T06:56:45;100563.44;;;6.86;95.37
66681;BME280;53575;51.366;12.350;2022-11-03T06:59:12;100559.94;;;6.82;95.65
66681;BME280;53575;51.366;12.350;2022-11-03T07:01:39;100553.13;;;6.92;95.29
66681;BME280;53575;51.366;12.350;2022-11-03T07:04:13;100550.50;;;6.90;95.51
66681;BME280;53575;51.366;12.350;2022-11-03T07:06:41;100541.06;;;6.95;94.96
66681;BME280;53575;51.366;12.350;2022-11-03T07:09:17;100540.97;;;6.89;95.24
66681;BME280;53575;51.366;12.350;2022-11-03T07:11:50;100541.97;;;7.00;94.80
66681;BME280;53575;51.366;12.350;2022-11-03T07:14:19;100543.59;;;6.91;95.64
66681;BME280;53575;51.366;12.350;2022-11-03T07:17:15;100544.56;;;6.99;95.17
66681;BME280;53575;51.366;12.350;2022-11-03T07:19:45;100541.16;;;7.04;95.07
66681;BME280;53575;51.366;12.350;2022-11-03T07:24:44;100530.84;;;7.11;94.35
66681;BME280;53575;51.366;12.350;2022-11-03T07:27:19;100528.41;;;7.27;93.36
66681;BME280;53575;51.366;12.350;2022-11-03T07:29:47;100531.09;;;7.35;92.82
66681;BME280;53575;51.366;12.350;2022-11-03T07:32:25;100530.19;;;7.31;93.21
66681;BME280;53575;51.366;12.350;2022-11-03T07:35:00;100525.94;;;7.37;93.40
66681;BME280;53575;51.366;12.350;2022-11-03T07:37:27;100528.56;;;7.43;92.57
66681;BME280;53575;51.366;12.350;2022-11-03T07:39:52;100530.28;;;7.38;93.44
66681;BME280;53575;51.366;12.350;2022-11-03T07:42:20;100525.16;;;7.45;93.37
66681;BME280;53575;51.366;12.350;2022-11-03T07:44:48;100518.22;;;7.47;93.67
66681;BME280;53575;51.366;12.350;2022-11-03T07:47:23;100516.63;;;7.60;92.44
66681;BME280;53575;51.366;12.350;2022-11-03T07:49:52;100501.84;;;7.57;92.42
66681;BME280;53575;51.366;12.350;2022-11-03T07:52:23;100502.88;;;7.78;92.08
66681;BME280;53575;51.366;12.350;2022-11-03T07:54:50;100498.63;;;7.89;91.04
66681;BME280;53575;51.366;12.350;2022-11-03T07:57:27;100499.53;;;7.91;91.02
66681;BME280;53575;51.366;12.350;2022-11-03T08:00:01;100497.88;;;8.04;90.26
66681;BME280;53575;51.366;12.350;2022-11-03T08:02:48;100493.56;;;8.06;89.89
66681;BME280;53575;51.366;12.350;2022-11-03T08:05:15;100484.94;;;8.12;89.93
66681;BME280;53575;51.366;12.350;2022-11-03T08:07:40;100480.69;;;8.27;89.19
66681;BME280;53575;51.366;12.350;2022-11-03T08:10:06;100472.09;;;8.39;88.62
66681;BME280;53575;51.366;12.350;2022-11-03T08:12:32;100468.72;;;8.57;87.66
66681;BME280;53575;51.366;12.350;2022-11-03T08:14:57;100463.53;;;8.59;87.37
66681;BME280;53575;51.366;12.350;2022-11-03T08:17:23;100460.09;;;8.67;87.07
66681;BME280;53575;51.366;12.350;2022-11-03T08:19:48;100452.34;;;8.83;87.12
66681;BME280;53575;51.366;12.350;2022-11-03T08:22:13;100448.88;;;8.91;86.33
66681;BME280;53575;51.366;12.350;2022-11-03T08:24:39;100451.47;;;8.96;86.51
66681;BME280;53575;51.366;12.350;2022-11-03T08:27:04;100452.41;;;9.10;84.99
66681;BME280;53575;51.366;12.350;2022-11-03T08:29:29;100444.59;;;9.24;84.26
66681;BME280;53575;51.366;12.350;2022-11-03T08:31:55;100437.63;;;9.31;83.94
66681;BME280;53575;51.366;12.350;2022-11-03T08:34:21;100439.41;;;9.36;83.68
66681;BME280;53575;51.366;12.350;2022-11-03T08:36:46;100431.59;;;9.44;83.46
66681;BME280;53575;51.366;12.350;2022-11-03T08:39:11;100434.19;;;9.53;83.42
66681;BME280;53575;51.366;12.350;2022-11-03T08:41:37;100433.31;;;9.57;83.04
66681;BME280;53575;51.366;12.350;2022-11-03T08:44:02;100428.97;;;9.61;83.08
66681;BME280;53575;51.366;12.350;2022-11-03T08:46:28;100427.19;;;9.76;82.34
66681;BME280;53575;51.366;12.350;2022-11-03T08:48:53;100421.09;;;9.84;81.69
66681;BME280;53575;51.366;12.350;2022-11-03T08:51:19;100416.75;;;9.90;81.19
66681;BME280;53575;51.366;12.350;2022-11-03T08:53:44;100411.53;;;9.98;81.23
66681;BME280;53575;51.366;12.350;2022-11-03T08:56:11;100408.03;;;10.08;80.38
66681;BME280;53575;51.366;12.350;2022-11-03T08:58:37;100403.66;;;10.16;79.47
66681;BME280;53575;51.366;12.350;2022-11-03T09:01:03;100401.00;;;10.30;78.61
66681;BME280;53575;51.366;12.350;2022-11-03T09:03:28;100399.22;;;10.40;78.38
66681;BME280;53575;51.366;12.350;2022-11-03T09:05:54;100397.47;;;10.46;77.95
66681;BME280;53575;51.366;12.350;2022-11-03T09:08:19;100383.50;;;10.49;77.47
66681;BME280;53575;51.366;12.350;2022-11-03T09:10:44;100379.13;;;10.59;77.32
66681;BME280;53575;51.366;12.350;2022-11-03T09:13:10;100385.16;;;10.67;77.71
66681;BME280;53575;51.366;12.350;2022-11-03T09:15:35;100379.88;;;10.79;76.72
66681;BME280;53575;51.366;12.350;2022-11-03T09:18:01;100372.84;;;10.92;75.83
66681;BME280;53575;51.366;12.350;2022-11-03T09:20:26;100372.78;;;10.95;75.99
66681;BME280;53575;51.366;12.350;2022-11-03T09:22:52;100369.25;;;11.07;75.55
66681;BME280;53575;51.366;12.350;2022-11-03T09:25:18;100364.81;;;11.15;74.73
66681;BME280;53575;51.366;12.350;2022-11-03T09:27:44;100363.03;;;11.20;75.39
66681;BME280;53575;51.366;12.350;2022-11-03T09:30:10;100355.13;;;11.25;75.07
66681;BME280;53575;51.366;12.350;2022-11-03T09:32:36;100348.91;;;11.41;73.55
66681;BME280;53575;51.366;12.350;2022-11-03T09:35:03;100348.88;;;11.44;73.39
66681;BME280;53575;51.366;12.350;2022-11-03T09:37:29;100351.50;;;11.42;73.69
66681;BME280;53575;51.366;12.350;2022-11-03T09:39:54;100341.81;;;11.52;72.92
66681;BME280;53575;51.366;12.350;2022-11-03T09:42:20;100340.03;;;11.57;73.25
66681;BME280;53575;51.366;12.350;2022-11-03T09:44:46;100336.50;;;11.61;72.84
66681;BME280;53575;51.366;12.350;2022-11-03T09:47:25;100320.78;;;11.61;72.25
66681;BME280;53575;51.366;12.350;2022-11-03T09:49:52;100325.88;;;11.75;72.32
66681;BME280;53575;51.366;12.350;2022-11-03T09:52:20;100314.41;;;11.91;70.95
66681;BME280;53575;51.366;12.350;2022-11-03T09:54:47;100313.53;;;11.91;70.84
66681;BME280;53575;51.366;12.350;2022-11-03T09:57:15;100310.69;;;12.08;70.13
66681;BME280;53575;51.366;12.350;2022-11-03T09:59:45;100307.09;;;12.18;70.02
66681;BME280;53575;51.366;12.350;2022-11-03T10:02:25;100300.78;;;12.33;68.16
66681;BME280;53575;51.366;12.350;2022-11-03T10:04:52;100299.84;;;12.37;67.37
66681;BME280;53575;51.366;12.350;2022-11-03T10:07:20;100292.72;;;12.47;67.03
66681;BME280;53575;51.366;12.350;2022-11-03T10:09:47;100288.44;;;12.39;68.90
66681;BME280;53575;51.366;12.350;2022-11-03T10:12:14;100280.47;;;12.49;68.50
66681;BME280;53575;51.366;12.350;2022-11-03T10:14:41;100274.13;;;12.62;68.10
66681;BME280;53575;51.366;12.350;2022-11-03T10:17:15;100275.75;;;12.72;68.74
66681;BME280;53575;51.366;12.350;2022-11-03T10:19:41;100267.47;;;12.97;68.15
66681;BME280;53575;51.366;12.350;2022-11-03T10:22:07;100260.44;;;12.97;66.62
66681;BME280;53575;51.366;12.350;2022-11-03T10:24:33;100257.94;;;12.91;65.69
66681;BME280;53575;51.366;12.350;2022-11-03T10:26:59;100254.16;;;13.07;65.07
66681;BME280;53575;51.366;12.350;2022-11-03T10:29:26;100247.03;;;13.17;66.67
66681;BME280;53575;51.366;12.350;2022-11-03T10:31:54;100245.31;;;13.14;67.07
66681;BME280;53575;51.366;12.350;2022-11-03T10:34:35;100233.81;;;13.22;66.62
66681;BME280;53575;51.366;12.350;2022-11-03T10:37:23;100226.50;;;13.39;67.88
66681;BME280;53575;51.366;12.350;2022-11-03T10:39:51;100229.78;;;13.50;65.23
66681;BME280;53575;51.366;12.350;2022-11-03T10:42:21;100235.63;;;13.64;64.13
66681;BME280;53575;51.366;12.350;2022-11-03T10:44:49;100231.09;;;13.74;63.42
66681;BME280;53575;51.366;12.350;2022-11-03T10:47:31;100226.50;;;13.84;62.17
66681;BME280;53575;51.366;12.350;2022-11-03T10:49:58;100219.47;;;13.86;62.15
66681;BME280;53575;51.366;12.350;2022-11-03T10:52:27;100214.25;;;13.83;61.92
66681;BME280;53575;51.366;12.350;2022-11-03T10:54:56;100218.59;;;13.85;63.03
66681;BME280;53575;51.366;12.350;2022-11-03T10:57:23;100206.06;;;13.98;62.53
66681;BME280;53575;51.366;12.350;2022-11-03T10:59:50;100212.03;;;14.05;61.40
66681;BME280;53575;51.366;12.350;2022-11-03T11:02:19;100205.41;;;14.27;61.47
66681;BME280;53575;51.366;12.350;2022-11-03T11:04:47;100192.88;;;14.38;61.71
66681;BME280;53575;51.366;12.350;2022-11-03T11:07:33;100192.16;;;14.69;58.54
66681;BME280;53575;51.366;12.350;2022-11-03T11:10:17;100189.38;;;14.75;58.90
66681;BME280;53575;51.366;12.350;2022-11-03T11:13:03;100186.53;;;14.83;59.82
66681;BME280;53575;51.366;12.350;2022-11-03T11:15:41;100185.81;;;14.76;58.71
66681;BME280;53575;51.366;12.350;2022-11-03T11:18:07;100182.97;;;14.85;58.76
66681;BME280;53575;51.366;12.350;2022-11-03T11:20:38;100181.34;;;14.80;59.72
66681;BME280;53575;51.366;12.350;2022-11-03T11:39:44;100137.59;;;15.10;58.24
66681;BME280;53575;51.366;12.350;2022-11-03T11:42:14;100129.88;;;15.04;58.55
66681;BME280;53575;51.366;12.350;2022-11-03T11:55:30;100122.22;;;15.57;55.35
66681;BME280;53575;51.366;12.350;2022-11-03T11:57:59;100117.34;;;15.43;55.49
66681;BME280;53575;51.366;12.350;2022-11-03T12:00:28;100111.16;;;15.44;54.61
66681;BME280;53575;51.366;12.350;2022-11-03T12:02:54;100093.94;;;15.32;55.01
66681;BME280;53575;51.366;12.350;2022-11-03T12:05:25;100084.38;;;15.30;56.07
66681;BME280;53575;51.366;12.350;2022-11-03T12:07:53;100070.78;;;15.14;55.77
66681;BME280;53575;51.366;12.350;2022-11-03T12:10:24;100065.78;;;15.05;56.24
66681;BME280;53575;51.366;12.350;2022-11-03T12:12:57;100065.84;;;15.03;56.69
66681;BME280;53575;51.366;12.350;2022-11-03T12:15:57;100061.69;;;14.95;57.44
66681;BME280;53575;51.366;12.350;2022-11-03T12:18:40;100055.53;;;14.96;57.19
66681;BME280;53575;51.366;12.350;2022-11-03T12:21:47;100057.84;;;15.06;57.56
66681;BME280;53575;51.366;12.350;2022-11-03T12:26:57;100034.16;;;15.06;56.51
66681;BME280;53575;51.366;12.350;2022-11-03T12:29:23;100028.44;;;15.22;56.16
66681;BME280;53575;51.366;12.350;2022-11-03T12:31:48;100027.63;;;15.49;55.08
66681;BME280;53575;51.366;12.350;2022-11-03T12:34:14;100019.69;;;15.51;55.35
66681;BME280;53575;51.366;12.350;2022-11-03T12:36:41;100009.94;;;15.53;56.00
66681;BME280;53575;51.366;12.350;2022-11-03T12:39:06;100018.59;;;15.58;54.06
66681;BME280;53575;51.366;12.350;2022-11-03T12:41:31;99995.22;;;15.47;54.02
66681;BME280;53575;51.366;12.350;2022-11-03T12:43:56;99993.41;;;15.49;55.09
66681;BME280;53575;51.366;12.350;2022-11-03T12:46:22;99974.97;;;15.49;54.42
66681;BME280;53575;51.366;12.350;2022-11-03T12:48:48;99970.66;;;15.47;54.57
66681;BME280;53575;51.366;12.350;2022-11-03T12:51:15;99961.91;;;15.45;54.70
66681;BME280;53575;51.366;12.350;2022-11-03T12:53:41;99968.16;;;15.42;56.39
66681;BME280;53575;51.366;12.350;2022-11-03T12:56:10;99962.47;;;15.28;58.38
66681;BME280;53575;51.366;12.350;2022-11-03T12:58:36;99956.44;;;15.24;57.38
66681;BME280;53575;51.366;12.350;2022-11-03T13:01:03;99957.63;;;15.14;58.04
66681;BME280;53575;51.366;12.350;2022-11-03T13:03:28;99959.47;;;15.10;59.87
66681;BME280;53575;51.366;12.350;2022-11-03T13:05:54;99964.53;;;14.89;61.98
66681;BME280;53575;51.366;12.350;2022-11-03T13:08:20;99953.19;;;14.86;61.16
66681;BME280;53575;51.366;12.350;2022-11-03T13:10:45;99948.91;;;14.82;61.38
66681;BME280;53575;51.366;12.350;2022-11-03T13:13:11;99943.59;;;14.84;61.25
66681;BME280;53575;51.366;12.350;2022-11-03T13:15:36;99937.56;;;14.80;62.08
66681;BME280;53575;51.366;12.350;2022-11-03T13:18:02;99934.69;;;14.90;60.81
66681;BME280;53575;51.366;12.350;2022-11-03T13:20:30;99922.22;;;14.96;60.44
66681;BME280;53575;51.366;12.350;2022-11-03T13:22:56;99918.03;;;15.17;60.44
66681;BME280;53575;51.366;12.350;2022-11-03T13:25:21;99916.47;;;15.11;60.73
66681;BME280;53575;51.366;12.350;2022-11-03T13:27:48;99926.94;;;15.13;60.82
66681;BME280;53575;51.366;12.350;2022-11-03T13:30:18;99917.91;;;15.22;61.38
66681;BME280;53575;51.366;12.350;2022-11-03T13:32:44;99908.97;;;15.27;60.76
66681;BME280;53575;51.366;12.350;2022-11-03T13:35:09;99896.91;;;15.20;60.82
66681;BME280;53575;51.366;12.350;2022-11-03T13:37:34;99891.88;;;15.13;62.44